Time;durP1;ratioP1;P1;durP2;ratioP2;P2;SDS_P1;SDS_P2;PMS_P1;PMS_P2;Temp;Humidity;BMP_temperature;BMP_pressure;BME280_temperature;BME280_humidity;BME280_pressure;Samples;Min_cycle;Max_cycle;Signal;HPM_P1;HPM_P2
2022/12/30 00:00:00;;;;;;;;;;;;;;;5.54;100.00;99833.72;5011523;28;19917;-63
2022/12/30 00:02:25;;;;;;;;;;;;;;;5.49;100.00;99823.72;4993966;28;20369;-72
2022/12/30 00:04:50;;;;;;;;;;;;;;;5.44;100.00;99832.41;5008537;28;19928;-60
2022/12/30 00:07:15;;;;;;;;;;;;;;;5.37;100.00;99834.38;5011918;28;19917;-62
2022/12/30 00:09:40;;;;;;;;;;;;;;;5.32;100.00;99831.97;5009084;28;19962;-61
2022/12/30 00:34:26;;;;;;;;;;;;;;;5.00;100.00;99831.44;4932646;29;19922;-60
2022/12/30 00:36:51;;;;;;;;;;;;;;;5.10;100.00;99834.47;4935705;29;19919;-62
2022/12/30 00:39:16;;;;;;;;;;;;;;;5.09;100.00;99835.38;4935945;29;19919;-61
2022/12/30 00:44:26;;;;;;;;;;;;;;;5.10;100.00;99823.47;4935798;29;19974;-61
2022/12/30 00:46:51;;;;;;;;;;;;;;;5.07;100.00;99821.84;4935347;29;20337;-61
2022/12/30 00:57:28;;;;;;;;;;;;;;;5.20;100.00;99850.28;5004157;28;20388;-60
2022/12/30 00:59:54;;;;;;;;;;;;;;;5.16;100.00;99852.13;5015052;28;19913;-60
2022/12/30 01:02:19;;;;;;;;;;;;;;;5.15;100.00;99862.38;5020488;28;20013;-60
2022/12/30 01:04:44;;;;;;;;;;;;;;;5.23;100.00;99867.19;5012829;28;20016;-60
2022/12/30 01:07:09;;;;;;;;;;;;;;;5.25;100.00;99873.91;5006855;28;20522;-60
2022/12/30 01:09:35;;;;;;;;;;;;;;;5.20;100.00;99880.88;5014970;28;19918;-60
2022/12/30 01:12:09;;;;;;;;;;;;;;;5.26;100.00;99892.56;5006551;28;20430;-59
2022/12/30 01:14:35;;;;;;;;;;;;;;;5.28;100.00;99899.31;5013392;28;20370;-60
2022/12/30 01:17:01;;;;;;;;;;;;;;;5.26;100.00;99895.13;5015357;28;19967;-62
2022/12/30 01:19:26;;;;;;;;;;;;;;;5.24;100.00;99904.56;5015328;28;20007;-60
2022/12/30 01:21:51;;;;;;;;;;;;;;;5.29;100.00;99902.69;5006765;28;19923;-61
2022/12/30 01:24:16;;;;;;;;;;;;;;;5.11;100.00;99911.78;5016355;28;19928;-61
2022/12/30 01:26:42;;;;;;;;;;;;;;;5.05;100.00;99909.47;5014809;28;19957;-60
2022/12/30 01:29:07;;;;;;;;;;;;;;;4.94;100.00;99918.31;5013540;28;20284;-61
2022/12/30 01:31:32;;;;;;;;;;;;;;;4.98;100.00;99921.59;5007532;28;19918;-60
2022/12/30 01:33:57;;;;;;;;;;;;;;;4.87;100.00;99916.84;5014242;28;19940;-60
2022/12/30 01:36:22;;;;;;;;;;;;;;;4.94;100.00;99914.94;5013050;28;19914;-59
2022/12/30 01:38:47;;;;;;;;;;;;;;;4.88;100.00;99915.16;5014515;28;20008;-60
2022/12/30 01:41:13;;;;;;;;;;;;;;;4.87;100.00;99919.41;5012963;28;19917;-61
2022/12/30 01:43:46;;;;;;;;;;;;;;;4.87;100.00;99906.66;5020912;28;19917;-60
2022/12/30 01:46:14;;;;;;;;;;;;;;;4.74;100.00;99903.72;5014089;28;19971;-61
2022/12/30 01:48:39;;;;;;;;;;;;;;;4.83;100.00;99900.84;5014398;28;19961;-61
2022/12/30 01:51:10;;;;;;;;;;;;;;;4.81;100.00;99910.25;5002931;28;20302;-61
2022/12/30 01:53:39;;;;;;;;;;;;;;;4.71;100.00;99908.88;5017924;28;20293;-61
2022/12/30 01:56:07;;;;;;;;;;;;;;;4.71;100.00;99911.44;5013935;28;19936;-59
2022/12/30 01:58:38;;;;;;;;;;;;;;;4.64;100.00;99920.16;5012922;28;20370;-61
2022/12/30 02:01:03;;;;;;;;;;;;;;;4.57;100.00;99927.19;5012234;28;19924;-61
2022/12/30 02:03:34;;;;;;;;;;;;;;;4.50;100.00;99928.25;5021335;28;19914;-60
2022/12/30 02:05:59;;;;;;;;;;;;;;;4.48;100.00;99928.31;5014012;28;20361;-60
2022/12/30 02:08:25;;;;;;;;;;;;;;;4.49;100.00;99942.72;5014201;28;20029;-60
2022/12/30 02:10:52;;;;;;;;;;;;;;;4.42;100.00;99950.63;5010266;28;19978;-60
2022/12/30 02:13:18;;;;;;;;;;;;;;;4.55;100.00;99954.41;5012751;28;19913;-60
2022/12/30 02:15:56;;;;;;;;;;;;;;;4.46;100.00;99952.16;5013027;28;19920;-60
2022/12/30 02:18:27;;;;;;;;;;;;;;;4.20;100.00;99951.25;5012293;28;19917;-60
2022/12/30 02:20:52;;;;;;;;;;;;;;;4.12;100.00;99955.75;5004415;28;20297;-60
2022/12/30 02:23:35;;;;;;;;;;;;;;;3.99;100.00;99945.94;5022830;28;19914;-60
2022/12/30 02:26:19;;;;;;;;;;;;;;;3.91;100.00;99949.59;5013469;28;19935;-60
2022/12/30 02:29:03;;;;;;;;;;;;;;;3.79;100.00;99949.06;5013888;28;19913;-60
2022/12/30 02:31:34;;;;;;;;;;;;;;;3.68;100.00;99957.03;5014976;28;19924;-60
2022/12/30 02:33:59;;;;;;;;;;;;;;;3.61;100.00;99952.97;5017190;28;19913;-60
2022/12/30 02:36:41;;;;;;;;;;;;;;;3.52;100.00;99961.72;5013209;28;19920;-61
2022/12/30 02:39:10;;;;;;;;;;;;;;;3.36;100.00;99961.28;5013651;28;20029;-61
2022/12/30 02:44:38;;;;;;;;;;;;;;;3.13;100.00;99961.88;5002745;28;20372;-60
2022/12/30 02:47:07;;;;;;;;;;;;;;;3.06;100.00;99968.84;5011304;28;19922;-60
2022/12/30 02:49:33;;;;;;;;;;;;;;;3.05;100.00;99964.63;5028421;28;20284;-60
2022/12/30 02:52:15;;;;;;;;;;;;;;;3.10;100.00;99963.66;5004121;28;20053;-60
2022/12/30 02:54:41;;;;;;;;;;;;;;;3.13;100.00;99968.69;5021794;28;19914;-60
2022/12/30 02:57:42;;;;;;;;;;;;;;;3.14;100.00;99963.56;5012872;28;19921;-61
2022/12/30 03:06:03;;;;;;;;;;;;;;;3.12;100.00;99970.38;4933186;29;19918;-60
2022/12/30 03:08:39;;;;;;;;;;;;;;;3.03;100.00;99968.91;4933131;29;19918;-60
2022/12/30 03:11:15;;;;;;;;;;;;;;;2.92;100.00;99970.06;4923417;29;19926;-60
2022/12/30 03:13:55;;;;;;;;;;;;;;;2.80;100.00;99968.66;4917525;29;20036;-60
2022/12/30 03:16:27;;;;;;;;;;;;;;;2.87;100.00;99980.34;4932759;29;20000;-60
2022/12/30 03:18:53;;;;;;;;;;;;;;;2.88;100.00;99977.75;4933230;29;19938;-60
2022/12/30 03:21:20;;;;;;;;;;;;;;;2.91;100.00;99984.47;4923266;29;19919;-60
2022/12/30 03:29:19;;;;;;;;;;;;;;;2.73;100.00;99981.50;4933268;29;20010;-61
2022/12/30 03:31:45;;;;;;;;;;;;;;;2.71;100.00;99972.25;4923451;29;20014;-60
2022/12/30 03:34:10;;;;;;;;;;;;;;;2.70;100.00;99975.66;4973770;28;20425;-60
2022/12/30 03:36:41;;;;;;;;;;;;;;;2.67;100.00;99979.13;5012290;28;20324;-60
2022/12/30 03:39:06;;;;;;;;;;;;;;;2.68;100.00;99973.16;5012440;28;19921;-61
2022/12/30 03:41:32;;;;;;;;;;;;;;;2.58;100.00;99975.09;5002182;28;19917;-61
2022/12/30 03:43:58;;;;;;;;;;;;;;;2.58;100.00;99972.53;5009107;28;19921;-60
2022/12/30 03:46:27;;;;;;;;;;;;;;;2.56;100.00;99971.75;5012258;28;19913;-60
2022/12/30 03:48:53;;;;;;;;;;;;;;;2.49;100.00;99967.66;5012528;28;19996;-60
2022/12/30 03:51:18;;;;;;;;;;;;;;;2.45;100.00;99968.63;5011988;28;20000;-60
2022/12/30 03:53:43;;;;;;;;;;;;;;;2.41;100.00;99967.03;5017823;28;20004;-60
2022/12/30 03:56:08;;;;;;;;;;;;;;;2.32;100.00;99963.00;5011651;28;20471;-60
2022/12/30 03:58:34;;;;;;;;;;;;;;;2.29;100.00;99965.59;5011940;28;19969;-60
2022/12/30 04:00:59;;;;;;;;;;;;;;;2.29;100.00;99965.59;4999653;28;20380;-60
2022/12/30 04:03:24;;;;;;;;;;;;;;;2.31;100.00;99960.47;5007272;28;19914;-60
2022/12/30 04:05:53;;;;;;;;;;;;;;;2.44;100.00;99969.47;5012258;28;20008;-60
2022/12/30 04:08:19;;;;;;;;;;;;;;;2.55;100.00;99970.06;5012304;28;20233;-60
2022/12/30 04:10:44;;;;;;;;;;;;;;;2.71;100.00;99982.41;5007299;28;19928;-60
2022/12/30 04:13:09;;;;;;;;;;;;;;;2.80;100.00;99972.00;5013435;28;19952;-60
2022/12/30 04:15:34;;;;;;;;;;;;;;;2.84;100.00;99971.09;5006549;28;19960;-61
2022/12/30 04:17:59;;;;;;;;;;;;;;;2.88;100.00;99971.84;5022470;28;19914;-60
2022/12/30 04:20:24;;;;;;;;;;;;;;;2.96;100.00;99984.34;5005083;28;20379;-60
2022/12/30 04:22:50;;;;;;;;;;;;;;;3.06;100.00;99985.78;5010833;28;19921;-60
2022/12/30 04:25:15;;;;;;;;;;;;;;;3.11;100.00;99983.97;5012132;28;20388;-61
2022/12/30 04:27:40;;;;;;;;;;;;;;;3.15;100.00;99988.09;5011744;28;20701;-60
2022/12/30 04:30:05;;;;;;;;;;;;;;;3.27;100.00;99984.41;5002590;28;20419;-60
2022/12/30 04:32:31;;;;;;;;;;;;;;;3.37;100.00;99995.16;5007417;28;19917;-60
2022/12/30 04:34:56;;;;;;;;;;;;;;;3.39;100.00;99984.06;5001203;28;19986;-60
2022/12/30 04:37:21;;;;;;;;;;;;;;;3.41;100.00;99985.75;5011524;28;19914;-61
2022/12/30 04:39:46;;;;;;;;;;;;;;;3.48;100.00;99985.53;5011985;28;19917;-61
2022/12/30 04:42:12;;;;;;;;;;;;;;;3.56;100.00;99982.81;5000009;28;20288;-61
2022/12/30 04:44:37;;;;;;;;;;;;;;;3.52;100.00;99971.03;5003893;28;20024;-61
2022/12/30 04:47:02;;;;;;;;;;;;;;;3.57;100.00;99960.72;5008125;28;19918;-61
2022/12/30 04:49:27;;;;;;;;;;;;;;;3.53;100.00;99970.16;5011523;28;20059;-61
2022/12/30 04:51:52;;;;;;;;;;;;;;;3.57;100.00;99979.38;5014820;28;19960;-60
2022/12/30 04:54:18;;;;;;;;;;;;;;;3.63;100.00;99980.91;5012588;28;19936;-60
2022/12/30 04:56:43;;;;;;;;;;;;;;;3.67;100.00;99979.94;5008825;28;20001;-61
2022/12/30 04:59:08;;;;;;;;;;;;;;;3.66;100.00;99999.47;5009063;28;20273;-60
2022/12/30 05:01:33;;;;;;;;;;;;;;;3.72;100.00;99995.91;5005904;28;19921;-60
2022/12/30 05:03:58;;;;;;;;;;;;;;;3.70;100.00;99987.50;5014582;28;19914;-60
2022/12/30 05:06:24;;;;;;;;;;;;;;;3.77;100.00;100001.72;5012098;28;19913;-60
2022/12/30 05:08:49;;;;;;;;;;;;;;;3.97;100.00;99998.59;5011502;28;19940;-60
2022/12/30 05:11:14;;;;;;;;;;;;;;;4.01;100.00;99999.34;5003029;28;19968;-60
2022/12/30 05:13:40;;;;;;;;;;;;;;;4.13;100.00;99999.00;5014713;28;19924;-60
2022/12/30 05:16:05;;;;;;;;;;;;;;;4.09;100.00;99992.31;5013481;28;19952;-60
2022/12/30 05:18:30;;;;;;;;;;;;;;;4.10;100.00;99998.25;5015347;28;19975;-60
2022/12/30 05:20:55;;;;;;;;;;;;;;;4.13;100.00;99998.16;5011760;28;19917;-60
2022/12/30 05:26:13;;;;;;;;;;;;;;;4.20;100.00;99982.66;5014416;28;19967;-60
2022/12/30 05:28:38;;;;;;;;;;;;;;;4.24;100.00;100003.75;5015119;28;19988;-60
2022/12/30 05:31:04;;;;;;;;;;;;;;;4.23;100.00;99997.00;5012730;28;19933;-61
2022/12/30 05:33:29;;;;;;;;;;;;;;;4.32;100.00;99998.44;5004667;28;19913;-60
2022/12/30 05:35:54;;;;;;;;;;;;;;;4.41;100.00;99992.25;5013085;28;19913;-60
2022/12/30 05:38:19;;;;;;;;;;;;;;;4.50;100.00;99987.69;5014640;28;20296;-60
2022/12/30 05:40:44;;;;;;;;;;;;;;;4.61;100.00;99997.53;5010199;28;19949;-60
2022/12/30 05:43:10;;;;;;;;;;;;;;;4.68;100.00;99995.63;5024512;28;19914;-60
2022/12/30 05:45:35;;;;;;;;;;;;;;;4.78;100.00;99999.53;5014668;28;19924;-61
2022/12/30 05:48:00;;;;;;;;;;;;;;;4.91;100.00;99999.16;5013995;28;19967;-60
2022/12/30 05:50:25;;;;;;;;;;;;;;;5.01;100.00;99996.25;5007361;28;20753;-60
2022/12/30 05:52:50;;;;;;;;;;;;;;;5.15;100.00;99989.88;5026610;28;19917;-60
2022/12/30 05:55:16;;;;;;;;;;;;;;;5.19;100.00;99993.97;5013210;28;19917;-60
2022/12/30 05:57:41;;;;;;;;;;;;;;;5.21;100.00;100007.50;5014127;28;20211;-61
2022/12/30 06:00:06;;;;;;;;;;;;;;;5.32;100.00;100018.19;5003278;28;20396;-60
2022/12/30 06:02:33;;;;;;;;;;;;;;;5.41;100.00;100022.13;5012522;28;19924;-61
2022/12/30 06:04:58;;;;;;;;;;;;;;;5.47;100.00;100029.56;5012702;28;19910;-61
2022/12/30 06:07:23;;;;;;;;;;;;;;;5.44;100.00;100029.66;5013804;28;20207;-60
2022/12/30 06:09:48;;;;;;;;;;;;;;;5.49;100.00;100020.16;5014218;28;19917;-60
2022/12/30 06:12:14;;;;;;;;;;;;;;;5.52;100.00;100024.31;5003873;28;19917;-60
2022/12/30 06:14:39;;;;;;;;;;;;;;;5.55;100.00;100015.72;5013986;28;19909;-61
2022/12/30 06:17:04;;;;;;;;;;;;;;;5.38;100.00;100001.81;5013755;28;19913;-61
2022/12/30 06:19:29;;;;;;;;;;;;;;;5.34;100.00;100006.19;5013877;28;19935;-60
2022/12/30 06:21:54;;;;;;;;;;;;;;;5.39;100.00;100005.22;5017040;28;20049;-61
2022/12/30 06:24:20;;;;;;;;;;;;;;;5.53;100.00;100010.66;5014859;28;19914;-61
2022/12/30 06:26:45;;;;;;;;;;;;;;;5.57;100.00;100007.13;5013335;28;19983;-60
2022/12/30 06:29:10;;;;;;;;;;;;;;;5.59;100.00;100002.78;5013842;28;19913;-60
2022/12/30 06:31:35;;;;;;;;;;;;;;;5.65;100.00;100000.00;5015722;28;19924;-60
2022/12/30 06:34:00;;;;;;;;;;;;;;;5.73;100.00;100002.31;5016780;28;19921;-60
2022/12/30 06:36:26;;;;;;;;;;;;;;;5.76;100.00;100004.75;5013191;28;20380;-60
2022/12/30 06:38:51;;;;;;;;;;;;;;;5.81;100.00;99999.47;5013548;28;19921;-60
2022/12/30 06:41:16;;;;;;;;;;;;;;;5.84;100.00;100011.28;5013162;28;19928;-60
2022/12/30 06:43:41;;;;;;;;;;;;;;;5.84;100.00;100009.56;5019277;28;19925;-61
2022/12/30 06:46:06;;;;;;;;;;;;;;;5.98;100.00;100011.63;5013046;28;20015;-61
2022/12/30 06:48:32;;;;;;;;;;;;;;;5.99;100.00;100003.09;5013380;28;20004;-62
2022/12/30 06:50:58;;;;;;;;;;;;;;;5.90;100.00;99995.75;5010032;28;19917;-61
2022/12/30 06:53:23;;;;;;;;;;;;;;;5.90;100.00;100001.69;5011969;28;20004;-61
2022/12/30 06:55:48;;;;;;;;;;;;;;;5.94;100.00;100000.69;5012203;28;20004;-65
2022/12/30 06:58:14;;;;;;;;;;;;;;;5.89;100.00;100005.16;5012746;28;20280;-60
2022/12/30 07:00:39;;;;;;;;;;;;;;;5.91;100.00;99998.25;5007850;28;19924;-61
2022/12/30 07:03:04;;;;;;;;;;;;;;;5.91;100.00;99997.41;5018659;28;20444;-62
2022/12/30 07:05:29;;;;;;;;;;;;;;;5.84;100.00;99999.34;5012715;28;20026;-61
2022/12/30 07:07:54;;;;;;;;;;;;;;;5.87;100.00;99998.44;5011673;28;19946;-62
2022/12/30 07:10:19;;;;;;;;;;;;;;;5.92;100.00;99994.81;5001169;28;19917;-61
2022/12/30 07:12:45;;;;;;;;;;;;;;;5.89;100.00;99992.38;5025504;28;19913;-60
2022/12/30 07:15:10;;;;;;;;;;;;;;;6.03;100.00;99991.88;5012642;28;19992;-60
2022/12/30 07:17:35;;;;;;;;;;;;;;;5.95;100.00;99989.59;5011759;28;20419;-60
2022/12/30 07:20:00;;;;;;;;;;;;;;;5.97;100.00;99995.47;5011760;28;19933;-61
2022/12/30 07:22:26;;;;;;;;;;;;;;;5.89;100.00;99978.75;5008428;28;20012;-61
2022/12/30 07:24:51;;;;;;;;;;;;;;;5.97;100.00;99987.81;5009539;28;20020;-61
2022/12/30 07:27:16;;;;;;;;;;;;;;;5.95;100.00;99993.84;5005691;28;19961;-60
2022/12/30 07:29:41;;;;;;;;;;;;;;;6.01;100.00;99990.28;5008317;28;19921;-60
2022/12/30 07:32:08;;;;;;;;;;;;;;;6.12;100.00;99983.88;5011754;28;20416;-61
2022/12/30 07:34:34;;;;;;;;;;;;;;;6.21;100.00;99980.13;5009260;28;19940;-60
2022/12/30 07:37:00;;;;;;;;;;;;;;;6.27;100.00;99976.53;5006451;28;19917;-61
2022/12/30 07:39:25;;;;;;;;;;;;;;;6.20;100.00;99978.50;5011305;28;19913;-61
2022/12/30 07:41:50;;;;;;;;;;;;;;;6.40;100.00;99977.72;5015731;28;19924;-54
2022/12/30 07:44:15;;;;;;;;;;;;;;;6.28;100.00;99978.19;5014098;28;19913;-54
2022/12/30 07:46:41;;;;;;;;;;;;;;;6.38;100.00;99976.09;5000411;28;19940;-53
2022/12/30 07:49:06;;;;;;;;;;;;;;;6.33;100.00;99983.94;5011878;28;20508;-53
2022/12/30 07:51:31;;;;;;;;;;;;;;;6.39;100.00;99993.09;5013152;28;19925;-53
2022/12/30 07:53:59;;;;;;;;;;;;;;;6.51;100.00;100004.56;5007330;28;19996;-53
2022/12/30 07:56:25;;;;;;;;;;;;;;;6.61;100.00;99993.06;5010465;28;20444;-54
2022/12/30 07:58:52;;;;;;;;;;;;;;;6.71;100.00;99996.94;5006645;28;19956;-53
2022/12/30 08:01:17;;;;;;;;;;;;;;;6.74;100.00;99991.69;4995267;28;20032;-61
2022/12/30 08:03:43;;;;;;;;;;;;;;;6.96;100.00;99993.38;5017481;28;20474;-62
2022/12/30 08:06:15;;;;;;;;;;;;;;;6.92;100.00;99979.91;5010936;28;19921;-63
2022/12/30 08:08:41;;;;;;;;;;;;;;;7.00;100.00;99978.75;4997580;28;19991;-62
2022/12/30 08:11:07;;;;;;;;;;;;;;;7.02;100.00;99977.78;5009118;28;19928;-61
2022/12/30 08:13:34;;;;;;;;;;;;;;;6.97;100.00;99979.72;5013392;28;20384;-62
2022/12/30 08:16:02;;;;;;;;;;;;;;;6.95;100.00;99977.19;4997222;28;20343;-61
2022/12/30 08:18:27;;;;;;;;;;;;;;;6.95;100.00;99979.75;5018146;28;19925;-61
2022/12/30 08:20:52;;;;;;;;;;;;;;;7.00;100.00;99968.53;5007744;28;19925;-60
2022/12/30 08:23:17;;;;;;;;;;;;;;;7.03;100.00;99965.81;5014498;28;20369;-62
2022/12/30 08:25:42;;;;;;;;;;;;;;;6.89;100.00;99958.72;5006419;28;19967;-61
2022/12/30 08:28:08;;;;;;;;;;;;;;;6.76;100.00;99950.72;4997667;28;20215;-61
2022/12/30 08:30:33;;;;;;;;;;;;;;;7.04;100.00;99941.91;5005147;28;19928;-61
2022/12/30 08:32:58;;;;;;;;;;;;;;;6.94;100.00;99941.47;5022389;28;19976;-61
2022/12/30 08:35:23;;;;;;;;;;;;;;;6.94;100.00;99939.72;5010923;28;19924;-61
2022/12/30 08:37:49;;;;;;;;;;;;;;;6.97;100.00;99943.06;5011766;28;19913;-61
2022/12/30 08:40:14;;;;;;;;;;;;;;;6.95;100.00;99938.03;5002535;28;19917;-61
2022/12/30 08:42:39;;;;;;;;;;;;;;;6.73;100.00;99940.63;5005452;28;20361;-61
2022/12/30 08:45:05;;;;;;;;;;;;;;;6.66;100.00;99929.00;5007076;28;20012;-61
2022/12/30 08:47:30;;;;;;;;;;;;;;;6.33;100.00;99934.59;5011079;28;20400;-61
2022/12/30 08:49:55;;;;;;;;;;;;;;;6.27;100.00;99931.34;5013600;28;19917;-62
2022/12/30 08:52:20;;;;;;;;;;;;;;;6.12;100.00;99930.22;5018677;28;19924;-61
2022/12/30 08:54:45;;;;;;;;;;;;;;;6.23;100.00;99937.47;5015733;28;19921;-61
2022/12/30 08:57:12;;;;;;;;;;;;;;;6.23;100.00;99932.38;5014864;28;19961;-61
2022/12/30 08:59:37;;;;;;;;;;;;;;;6.09;100.00;99932.06;5012754;28;19947;-61
2022/12/30 09:02:02;;;;;;;;;;;;;;;6.12;100.00;99916.66;5018548;28;20458;-61
2022/12/30 09:04:28;;;;;;;;;;;;;;;6.13;100.00;99925.97;5012074;28;19918;-62
2022/12/30 09:06:53;;;;;;;;;;;;;;;6.33;100.00;99925.19;5013553;28;20337;-62
2022/12/30 09:09:20;;;;;;;;;;;;;;;6.57;100.00;99920.81;5014020;28;19917;-62
2022/12/30 09:11:45;;;;;;;;;;;;;;;6.89;100.00;99916.06;4998742;28;20004;-63
2022/12/30 09:14:11;;;;;;;;;;;;;;;6.90;100.00;99911.81;5014290;28;20369;-62
2022/12/30 09:16:37;;;;;;;;;;;;;;;6.98;100.00;99914.03;5014446;28;19914;-62
2022/12/30 09:19:02;;;;;;;;;;;;;;;6.88;100.00;99900.81;5015098;28;20432;-63
2022/12/30 09:21:27;;;;;;;;;;;;;;;7.38;100.00;99891.81;5015612;28;19921;-63
2022/12/30 09:23:53;;;;;;;;;;;;;;;7.97;100.00;99879.75;5019312;28;19922;-62
2022/12/30 09:26:20;;;;;;;;;;;;;;;8.42;100.00;99871.66;5011331;28;19917;-62
2022/12/30 09:28:45;;;;;;;;;;;;;;;8.47;100.00;99864.59;5014515;28;20051;-62
2022/12/30 09:31:10;;;;;;;;;;;;;;;8.47;100.00;99854.34;5012682;28;19996;-62
2022/12/30 09:33:35;;;;;;;;;;;;;;;8.31;100.00;99847.38;5017422;28;20045;-62
2022/12/30 09:36:01;;;;;;;;;;;;;;;8.21;100.00;99844.44;5009284;28;19920;-62
2022/12/30 09:38:26;;;;;;;;;;;;;;;8.52;100.00;99842.97;5012888;28;19941;-62
2022/12/30 09:41:03;;;;;;;;;;;;;;;9.15;100.00;99843.19;5009590;28;19925;-62
2022/12/30 09:43:31;;;;;;;;;;;;;;;10.34;100.00;99828.97;5022034;28;20004;-62
2022/12/30 09:45:56;;;;;;;;;;;;;;;11.18;100.00;99821.50;5005008;28;19917;-63
2022/12/30 09:48:24;;;;;;;;;;;;;;;11.43;100.00;99810.47;5011951;28;19997;-63
2022/12/30 09:51:01;;;;;;;;;;;;;;;11.55;100.00;99812.28;5005640;28;19949;-63
2022/12/30 09:53:27;;;;;;;;;;;;;;;10.15;100.00;99826.63;5021747;28;19929;-63
2022/12/30 09:55:55;;;;;;;;;;;;;;;10.31;100.00;99824.81;5009061;28;19913;-63
2022/12/30 09:58:26;;;;;;;;;;;;;;;11.30;100.00;99829.28;5010773;28;19976;-63
2022/12/30 10:00:52;;;;;;;;;;;;;;;11.98;100.00;99828.53;5009655;28;20301;-63
2022/12/30 10:03:19;;;;;;;;;;;;;;;12.68;100.00;99820.44;5012191;28;19968;-62
2022/12/30 10:05:47;;;;;;;;;;;;;;;12.53;100.00;99822.31;5014026;28;19920;-63
2022/12/30 10:08:13;;;;;;;;;;;;;;;12.11;100.00;99813.91;5013397;28;19917;-64
2022/12/30 10:10:41;;;;;;;;;;;;;;;10.80;100.00;99816.00;5008591;28;20486;-63
2022/12/30 10:13:11;;;;;;;;;;;;;;;9.76;100.00;99810.81;5008942;28;19914;-62
2022/12/30 10:15:45;;;;;;;;;;;;;;;8.49;100.00;99814.91;5006995;28;19917;-62
2022/12/30 10:18:19;;;;;;;;;;;;;;;8.17;100.00;99808.78;5005641;28;19944;-63
2022/12/30 10:20:51;;;;;;;;;;;;;;;7.77;100.00;99800.50;5008679;28;20435;-62
2022/12/30 10:23:35;;;;;;;;;;;;;;;7.57;100.00;99789.47;5019840;28;20431;-62
2022/12/30 10:26:08;;;;;;;;;;;;;;;7.34;100.00;99778.53;5027837;28;19933;-62
2022/12/30 10:28:36;;;;;;;;;;;;;;;7.37;100.00;99775.03;5013592;28;19925;-61
2022/12/30 10:31:01;;;;;;;;;;;;;;;7.11;100.00;99762.53;5009965;28;19920;-61
2022/12/30 10:33:26;;;;;;;;;;;;;;;6.91;100.00;99766.00;5011114;28;20181;-62
2022/12/30 10:35:56;;;;;;;;;;;;;;;6.79;100.00;99771.66;5012527;28;19987;-62
2022/12/30 10:38:25;;;;;;;;;;;;;;;6.98;100.00;99765.72;5013397;28;19917;-60
2022/12/30 10:40:53;;;;;;;;;;;;;;;6.88;100.00;99760.19;5001089;28;20291;-61
2022/12/30 10:43:26;;;;;;;;;;;;;;;6.74;100.00;99768.47;5022272;28;20373;-61
2022/12/30 10:45:59;;;;;;;;;;;;;;;6.77;100.00;99764.06;5004067;28;19920;-62
2022/12/30 10:48:24;;;;;;;;;;;;;;;6.91;100.00;99755.75;5013152;28;19917;-62
2022/12/30 10:50:51;;;;;;;;;;;;;;;6.81;100.00;99751.13;5004425;28;19924;-62
2022/12/30 10:53:18;;;;;;;;;;;;;;;6.76;100.00;99759.84;5012247;28;20354;-62
2022/12/30 10:55:49;;;;;;;;;;;;;;;6.60;100.00;99754.56;5011658;28;20055;-62
2022/12/30 10:58:23;;;;;;;;;;;;;;;6.62;100.00;99745.13;5009603;28;19921;-62
2022/12/30 11:00:49;;;;;;;;;;;;;;;6.65;100.00;99743.28;5002387;28;19928;-62
2022/12/30 11:03:29;;;;;;;;;;;;;;;6.79;100.00;99730.75;5008180;28;19998;-62
2022/12/30 11:05:56;;;;;;;;;;;;;;;6.92;100.00;99748.91;5011217;28;19920;-61
2022/12/30 11:08:22;;;;;;;;;;;;;;;6.88;100.00;99742.28;5008212;28;19913;-61
2022/12/30 11:11:04;;;;;;;;;;;;;;;6.81;100.00;99735.78;5001851;28;20008;-61
2022/12/30 11:16:15;;;;;;;;;;;;;;;6.74;100.00;99733.50;5012033;28;19924;-61
2022/12/30 11:18:44;;;;;;;;;;;;;;;6.75;100.00;99726.69;5004664;28;20269;-62
2022/12/30 11:21:09;;;;;;;;;;;;;;;6.91;100.00;99719.97;5010814;28;19921;-62
2022/12/30 11:23:36;;;;;;;;;;;;;;;6.96;100.00;99714.66;5019267;28;19936;-62
2022/12/30 11:26:03;;;;;;;;;;;;;;;7.02;100.00;99706.69;5010164;28;20019;-61
2022/12/30 11:28:31;;;;;;;;;;;;;;;7.00;100.00;99717.91;5012459;28;19928;-62
2022/12/30 11:30:58;;;;;;;;;;;;;;;6.87;100.00;99725.28;5009224;28;19917;-62
2022/12/30 11:33:27;;;;;;;;;;;;;;;6.89;100.00;99720.94;5010446;28;19914;-62
2022/12/30 11:35:52;;;;;;;;;;;;;;;6.90;100.00;99722.59;5012416;28;20003;-63
2022/12/30 11:38:27;;;;;;;;;;;;;;;7.07;100.00;99717.53;5011725;28;20011;-63
2022/12/30 11:40:53;;;;;;;;;;;;;;;7.05;100.00;99718.50;5007351;28;20734;-62
2022/12/30 11:43:19;;;;;;;;;;;;;;;7.04;100.00;99697.22;5020858;28;19917;-64
2022/12/30 11:45:53;;;;;;;;;;;;;;;6.95;100.00;99685.69;5012235;28;20022;-62
2022/12/30 11:48:30;;;;;;;;;;;;;;;6.99;100.00;99676.13;5003108;28;19917;-63
2022/12/30 11:50:57;;;;;;;;;;;;;;;7.04;100.00;99669.06;5016039;28;20392;-64
2022/12/30 11:53:24;;;;;;;;;;;;;;;7.00;100.00;99661.63;5008186;28;19971;-61
2022/12/30 11:55:53;;;;;;;;;;;;;;;6.98;100.00;99648.91;5011131;28;20390;-61
2022/12/30 11:58:18;;;;;;;;;;;;;;;7.00;100.00;99639.44;5026122;28;20349;-62
2022/12/30 12:00:44;;;;;;;;;;;;;;;6.91;100.00;99622.00;4991526;28;20011;-62
2022/12/30 12:03:15;;;;;;;;;;;;;;;6.83;100.00;99611.28;5021134;28;20032;-61
2022/12/30 12:05:42;;;;;;;;;;;;;;;6.82;100.00;99605.31;5011115;28;20044;-61
2022/12/30 12:08:26;;;;;;;;;;;;;;;6.89;100.00;99613.56;5010467;28;19921;-62
2022/12/30 12:11:12;;;;;;;;;;;;;;;6.97;100.00;99620.84;5007331;28;20115;-62
2022/12/30 12:13:47;;;;;;;;;;;;;;;6.92;100.00;99603.16;5016231;28;20010;-61
2022/12/30 12:16:15;;;;;;;;;;;;;;;7.00;100.00;99606.19;5001069;28;20360;-62
2022/12/30 12:18:55;;;;;;;;;;;;;;;7.08;100.00;99598.16;5003692;28;19917;-61
2022/12/30 12:21:28;;;;;;;;;;;;;;;7.05;100.00;99588.91;5003424;28;19959;-61
2022/12/30 12:24:19;;;;;;;;;;;;;;;6.99;100.00;99585.81;5008678;28;19917;-62
2022/12/30 12:26:51;;;;;;;;;;;;;;;6.97;100.00;99574.81;5014791;28;19914;-61
2022/12/30 12:29:16;;;;;;;;;;;;;;;7.07;100.00;99570.91;5018626;28;19913;-61
2022/12/30 12:33:48;;;;;;;6.33;1.80;;;;;;;7.19;100.00;99552.41;5121665;27;21045;-54
2022/12/30 12:36:27;;;;;;;4.23;1.80;;;;;;;7.05;100.00;99542.03;5084846;27;20625;-63
2022/12/30 12:39:10;;;;;;;4.67;1.57;;;;;;;7.16;100.00;99542.34;5086566;28;20164;-61
2022/12/30 12:42:06;;;;;;;1.60;1.47;;;;;;;7.06;100.00;99536.03;5088806;27;20223;-60
2022/12/30 12:45:05;;;;;;;5.50;2.20;;;;;;;7.19;100.00;99529.38;5086554;28;20560;-60
2022/12/30 12:47:52;;;;;;;4.00;1.92;;;;;;;7.26;100.00;99525.63;5086194;28;20405;-61
2022/12/30 12:50:25;;;;;;;5.33;1.90;;;;;;;7.22;100.00;99531.00;5079927;27;20184;-61
2022/12/30 12:53:02;;;;;;;3.77;1.70;;;;;;;7.18;100.00;99526.91;5087378;28;20210;-61
2022/12/30 12:55:54;;;;;;;3.17;2.00;;;;;;;7.15;100.00;99520.22;5087736;28;20180;-65
2022/12/30 12:58:43;;;;;;;4.47;1.80;;;;;;;7.11;100.00;99514.44;5085103;28;20181;-64
2022/12/30 13:01:49;;;;;;;4.70;1.50;;;;;;;7.17;100.00;99508.19;5089971;27;20234;-61
2022/12/30 13:04:19;;;;;;;3.47;1.20;;;;;;;7.19;100.00;99505.56;5066416;28;20192;-61
2022/12/30 13:06:51;;;;;;;2.87;1.40;;;;;;;7.21;100.00;99490.97;5065642;28;20173;-61
2022/12/30 13:09:38;;;;;;;3.00;1.40;;;;;;;7.27;100.00;99478.69;5067543;28;20235;-60
2022/12/30 13:12:09;;;;;;;2.37;1.50;;;;;;;7.40;100.00;99485.72;5050150;28;20235;-60
2022/12/30 13:14:58;;;;;;;2.80;1.70;;;;;;;7.36;100.00;99477.38;5065877;28;20185;-60
2022/12/30 13:17:45;;;;;;;2.00;1.53;;;;;;;7.30;100.00;99469.19;5063399;28;20345;-61
2022/12/30 13:20:23;;;;;;;3.47;2.03;;;;;;;7.64;100.00;99458.03;5051474;28;20763;-61
2022/12/30 13:22:49;;;;;;;3.90;2.00;;;;;;;7.43;100.00;99453.13;5049185;28;20553;-62
2022/12/30 13:25:23;;;;;;;3.83;1.77;;;;;;;7.50;100.00;99445.13;5059144;28;20219;-61
2022/12/30 13:27:51;;;;;;;3.73;1.60;;;;;;;7.35;100.00;99444.19;5065682;28;20213;-61
2022/12/30 13:30:20;;;;;;;3.60;2.07;;;;;;;7.28;100.00;99436.00;5055148;28;20192;-61
2022/12/30 13:32:51;;;;;;;3.80;1.70;;;;;;;7.36;100.00;99431.31;5065833;28;20232;-59
2022/12/30 13:35:20;;;;;;;3.47;2.50;;;;;;;7.27;100.00;99421.59;5068775;28;20185;-59
2022/12/30 13:38:00;;;;;;;3.20;1.80;;;;;;;7.20;100.00;99423.59;5067021;28;20638;-60